createdAt,value
2023-04-04T00:00:42.793Z,6.32
2023-04-04T00:03:16.630Z,6.31
2023-04-04T00:05:45.724Z,6.29
2023-04-04T00:08:13.584Z,6.27
2023-04-04T00:10:42.342Z,6.26
2023-04-04T00:13:10.650Z,6.26
2023-04-04T00:15:38.626Z,6.26
2023-04-04T00:18:07.351Z,6.27
2023-04-04T00:20:35.346Z,6.26
2023-04-04T00:23:03.469Z,6.25
2023-04-04T00:25:31.252Z,6.24
2023-04-04T00:28:01.192Z,6.23
2023-04-04T00:30:29.961Z,6.22
2023-04-04T00:32:58.458Z,6.21
2023-04-04T00:35:26.493Z,6.20
2023-04-04T00:37:54.504Z,6.20
2023-04-04T00:40:22.760Z,6.20
2023-04-04T00:42:50.947Z,6.20
2023-04-04T00:45:18.927Z,6.20
2023-04-04T00:47:47.378Z,6.19
2023-04-04T00:50:17.029Z,6.20
2023-04-04T00:52:45.030Z,6.19
2023-04-04T00:55:13.497Z,6.19
2023-04-04T00:57:41.558Z,6.19
2023-04-04T01:00:10.547Z,6.19
2023-04-04T01:02:38.610Z,6.19
2023-04-04T01:05:07.219Z,6.19
2023-04-04T01:07:37.351Z,6.20
2023-04-04T01:10:06.436Z,6.20
2023-04-04T01:12:35.330Z,6.20
2023-04-04T01:15:03.627Z,6.20
2023-04-04T01:17:31.734Z,6.20
2023-04-04T01:20:02.837Z,6.20
2023-04-04T01:22:38.179Z,6.20
2023-04-04T01:25:07.276Z,6.20
2023-04-04T01:27:36.484Z,6.21
2023-04-04T01:30:11.205Z,6.20
2023-04-04T01:32:39.434Z,6.20
2023-04-04T01:35:27.622Z,6.20
2023-04-04T01:38:07.377Z,6.19
2023-04-04T01:40:37.627Z,6.18
2023-04-04T01:43:07.909Z,6.18
2023-04-04T01:45:36.599Z,6.18
2023-04-04T01:48:11.229Z,6.18
2023-04-04T01:50:40.293Z,6.18
2023-04-04T01:53:08.870Z,6.18
2023-04-04T01:55:37.514Z,6.18
2023-04-04T01:58:05.812Z,6.18
2023-04-04T02:00:34.168Z,6.17
2023-04-04T02:03:02.798Z,6.16
2023-04-04T02:05:30.945Z,6.15
2023-04-04T02:07:58.914Z,6.14
2023-04-04T02:10:32.104Z,6.14
2023-04-04T02:13:00.114Z,6.13
2023-04-04T02:15:28.259Z,6.13
2023-04-04T02:17:57.014Z,6.12
2023-04-04T02:20:26.259Z,6.12
2023-04-04T02:22:55.765Z,6.11
2023-04-04T02:25:24.559Z,6.12
2023-04-04T02:27:52.513Z,6.11
2023-04-04T02:30:21.964Z,6.11
2023-04-04T02:32:51.059Z,6.10
2023-04-04T02:35:20.758Z,6.09
2023-04-04T02:37:48.618Z,6.09
2023-04-04T02:40:29.188Z,6.08
2023-04-04T02:42:57.174Z,6.07
2023-04-04T02:45:25.768Z,6.05
2023-04-04T02:48:07.699Z,6.03
2023-04-04T02:50:43.499Z,6.02
2023-04-04T02:53:12.901Z,6.02
2023-04-04T02:55:41.189Z,6.02
2023-04-04T02:58:09.666Z,6.00
2023-04-04T03:00:37.801Z,6.00
2023-04-04T03:03:06.706Z,5.99
2023-04-04T03:05:38.397Z,5.99
2023-04-04T03:08:06.992Z,5.99
2023-04-04T03:10:34.978Z,5.98
2023-04-04T03:13:04.662Z,5.98
2023-04-04T03:15:35.335Z,5.98
2023-04-04T03:18:04.052Z,5.97
2023-04-04T03:20:33.308Z,5.97
2023-04-04T03:23:01.282Z,5.96
2023-04-04T03:25:29.350Z,5.95
2023-04-04T03:27:57.465Z,5.95
2023-04-04T03:30:27.359Z,5.94
2023-04-04T03:32:55.615Z,5.93
2023-04-04T03:35:23.846Z,5.92
2023-04-04T03:37:52.094Z,5.92
2023-04-04T03:40:19.967Z,5.92
2023-04-04T03:42:47.873Z,5.92
2023-04-04T03:45:19.910Z,5.91
2023-04-04T03:47:48.445Z,5.90
2023-04-04T03:50:17.076Z,5.90
2023-04-04T03:52:52.325Z,5.89
2023-04-04T03:55:20.451Z,5.88
2023-04-04T03:57:48.770Z,5.87
2023-04-04T04:00:17.254Z,5.86
2023-04-04T04:02:45.911Z,5.86
2023-04-04T04:05:13.930Z,5.85
2023-04-04T04:07:43.443Z,5.86
2023-04-04T04:10:12.531Z,5.85
2023-04-04T04:12:40.502Z,5.84
2023-04-04T04:15:08.668Z,5.83
2023-04-04T04:17:40.865Z,5.83
2023-04-04T04:20:09.742Z,5.82
2023-04-04T04:22:45.503Z,5.81
2023-04-04T04:25:14.396Z,5.80
2023-04-04T04:27:43.602Z,5.80
2023-04-04T04:30:13.094Z,5.80
2023-04-04T04:32:43.166Z,5.80
2023-04-04T04:35:11.824Z,5.80
2023-04-04T04:37:40.003Z,5.79
2023-04-04T04:40:09.105Z,5.79
2023-04-04T04:42:46.602Z,5.79
2023-04-04T04:45:17.436Z,5.79
2023-04-04T04:47:49.945Z,5.79
2023-04-04T04:50:19.319Z,5.79
2023-04-04T04:52:53.029Z,5.78
2023-04-04T04:55:21.001Z,5.77
2023-04-04T04:57:58.499Z,5.78
2023-04-04T05:00:27.890Z,5.77
2023-04-04T05:02:56.781Z,5.77
2023-04-04T05:05:35.471Z,5.77
2023-04-04T05:08:06.551Z,5.77
2023-04-04T05:10:36.161Z,5.75
2023-04-04T05:13:04.133Z,5.75
2023-04-04T05:15:37.220Z,5.74
2023-04-04T05:18:05.668Z,5.73
2023-04-04T05:20:35.440Z,5.72
2023-04-04T05:23:05.052Z,5.72
2023-04-04T05:25:37.402Z,5.71
2023-04-04T05:28:06.308Z,5.70
2023-04-04T05:30:34.481Z,5.69
2023-04-04T05:33:11.428Z,5.68
2023-04-04T05:35:41.492Z,5.67
2023-04-04T05:38:09.980Z,5.66
2023-04-04T05:40:38.254Z,5.65
2023-04-04T05:43:10.710Z,5.65
2023-04-04T05:45:50.895Z,5.66
2023-04-04T05:48:18.851Z,5.67
2023-04-04T05:50:52.252Z,5.67
2023-04-04T05:53:23.822Z,5.67
2023-04-04T05:55:53.545Z,5.67
2023-04-04T05:58:22.522Z,5.67
2023-04-04T06:00:54.592Z,5.67
2023-04-04T06:03:22.697Z,5.67
2023-04-04T06:05:52.948Z,5.66
2023-04-04T06:08:21.480Z,5.66
2023-04-04T06:10:49.560Z,5.67
2023-04-04T06:13:18.251Z,5.68
2023-04-04T06:15:51.987Z,5.69
2023-04-04T06:18:21.669Z,5.70
2023-04-04T06:20:49.502Z,5.72
2023-04-04T06:23:17.922Z,5.72
2023-04-04T06:25:48.374Z,5.73
2023-04-04T06:28:18.272Z,5.74
2023-04-04T06:30:48.485Z,5.75
2023-04-04T06:33:19.935Z,5.76
2023-04-04T06:35:49.947Z,5.77
2023-04-04T06:38:18.654Z,5.79
2023-04-04T06:40:47.302Z,5.78
2023-04-04T06:43:15.626Z,5.79
2023-04-04T06:45:47.387Z,5.80
2023-04-04T06:48:15.951Z,5.80
2023-04-04T06:50:43.960Z,5.78
2023-04-04T06:53:14.997Z,5.78
2023-04-04T06:55:43.273Z,5.75
2023-04-04T06:58:11.444Z,5.67
2023-04-04T07:00:39.837Z,5.54
2023-04-04T07:03:09.380Z,5.41
2023-04-04T07:05:39.677Z,5.35
2023-04-04T07:08:07.954Z,5.32
2023-04-04T07:10:36.045Z,5.34
2023-04-04T07:13:04.433Z,5.36
2023-04-04T07:15:32.834Z,5.40
2023-04-04T07:18:00.796Z,5.42
2023-04-04T07:20:29.168Z,5.45
2023-04-04T07:22:57.579Z,5.48
2023-04-04T07:25:25.726Z,5.51
2023-04-04T07:28:02.275Z,5.54
2023-04-04T07:30:34.560Z,5.57
2023-04-04T07:33:04.818Z,5.60
2023-04-04T07:35:33.093Z,5.63
2023-04-04T07:38:01.319Z,5.65
2023-04-04T07:40:29.318Z,5.68
2023-04-04T07:42:57.582Z,5.70
2023-04-04T07:45:25.784Z,5.71
2023-04-04T07:47:53.859Z,5.73
2023-04-04T07:50:22.777Z,5.74
2023-04-04T07:52:52.774Z,5.75
2023-04-04T07:55:20.843Z,5.77
2023-04-04T07:57:48.976Z,5.77
2023-04-04T08:00:21.798Z,5.79
2023-04-04T08:02:53.809Z,5.80
2023-04-04T08:05:24.097Z,5.81
2023-04-04T08:07:53.604Z,5.82
2023-04-04T08:10:22.124Z,5.82
2023-04-04T08:12:50.047Z,5.83
2023-04-04T08:15:18.251Z,5.84
2023-04-04T08:17:46.363Z,5.86
2023-04-04T08:20:14.506Z,5.87
2023-04-04T08:22:42.887Z,5.87
2023-04-04T08:25:12.097Z,5.88
2023-04-04T08:27:44.463Z,5.89
2023-04-04T08:30:14.506Z,5.90
2023-04-04T08:32:46.145Z,5.91
2023-04-04T08:35:14.761Z,5.91
2023-04-04T08:37:47.507Z,5.92
2023-04-04T08:40:17.736Z,5.94
2023-04-04T08:42:48.263Z,5.94
2023-04-04T08:45:19.349Z,5.95
2023-04-04T08:47:50.543Z,5.96
2023-04-04T08:50:21.715Z,5.97
2023-04-04T08:52:49.992Z,5.98
2023-04-04T08:55:18.475Z,5.99
2023-04-04T08:57:47.379Z,5.99
2023-04-04T09:00:16.923Z,6.00
2023-04-04T09:02:54.447Z,6.01
2023-04-04T09:05:22.487Z,6.01
2023-04-04T09:07:51.895Z,6.02
2023-04-04T09:10:21.895Z,6.01
2023-04-04T09:12:51.833Z,6.01
2023-04-04T09:15:20.744Z,6.01
2023-04-04T09:17:49.336Z,6.01
2023-04-04T09:20:36.302Z,6.01
2023-04-04T09:23:08.964Z,6.01
2023-04-04T09:25:39.818Z,6.00
2023-04-04T09:28:09.690Z,6.01
2023-04-04T09:30:40.040Z,6.01
2023-04-04T09:33:09.866Z,6.01
2023-04-04T09:35:38.694Z,6.01
2023-04-04T09:38:08.189Z,6.02
2023-04-04T09:40:37.432Z,6.02
2023-04-04T09:43:07.815Z,6.03
2023-04-04T09:45:37.929Z,6.04
2023-04-04T09:48:06.592Z,6.05
2023-04-04T09:50:37.965Z,6.04
2023-04-04T09:53:06.859Z,6.05
2023-04-04T09:55:38.526Z,6.06
2023-04-04T09:58:14.477Z,6.06
2023-04-04T10:00:45.524Z,6.06
2023-04-04T10:03:15.456Z,6.06
2023-04-04T10:05:46.587Z,6.07
2023-04-04T10:08:18.826Z,6.07
2023-04-04T10:11:09.710Z,6.07
2023-04-04T10:13:44.687Z,6.07
2023-04-04T10:16:13.343Z,6.07
2023-04-04T10:18:41.784Z,6.07
2023-04-04T10:23:42.752Z,6.06
2023-04-04T10:26:12.975Z,6.06
2023-04-04T10:28:42.656Z,6.06
2023-04-04T10:31:22.789Z,6.06
2023-04-04T10:33:50.895Z,6.06
2023-04-04T10:36:29.209Z,6.07
2023-04-04T10:39:23.372Z,6.07
2023-04-04T10:41:53.172Z,6.07
2023-04-04T10:44:33.341Z,6.08
2023-04-04T10:47:23.767Z,6.08
2023-04-04T10:49:52.859Z,6.08
2023-04-04T10:52:24.066Z,6.08
2023-04-04T10:54:57.985Z,6.07
2023-04-04T10:57:28.667Z,6.05
2023-04-04T11:00:08.783Z,6.05
2023-04-04T11:02:44.923Z,6.05
2023-04-04T11:05:16.174Z,6.05
2023-04-04T11:07:57.212Z,6.04
2023-04-04T11:10:37.041Z,6.02
2023-04-04T11:13:14.710Z,6.02
2023-04-04T11:16:01.038Z,6.01
2023-04-04T11:18:33.991Z,5.99
2023-04-04T11:21:07.586Z,5.95
2023-04-04T11:23:58.777Z,5.93
2023-04-04T11:26:27.829Z,5.91
2023-04-04T11:29:02.242Z,5.90
2023-04-04T11:31:33.161Z,5.89
2023-04-04T11:34:08.285Z,5.89
2023-04-04T11:36:37.108Z,5.90
2023-04-04T11:39:15.166Z,5.91
2023-04-04T11:41:45.287Z,5.94
2023-04-04T11:44:13.407Z,5.95
2023-04-04T11:46:43.810Z,5.98
2023-04-04T11:49:12.191Z,6.01
2023-04-04T11:51:43.605Z,6.05
2023-04-04T11:54:16.145Z,6.06
2023-04-04T11:56:45.592Z,6.07
2023-04-04T11:59:18.346Z,6.10
2023-04-04T12:01:48.014Z,6.13
2023-04-04T12:04:21.895Z,6.17
2023-04-04T12:06:52.571Z,6.21
2023-04-04T12:09:23.514Z,6.24
2023-04-04T12:11:51.821Z,6.27
2023-04-04T12:14:22.123Z,6.29
2023-04-04T12:16:52.368Z,6.31
2023-04-04T12:19:20.950Z,6.33
2023-04-04T12:21:49.622Z,6.35
2023-04-04T12:24:17.796Z,6.37
2023-04-04T12:26:49.167Z,6.39
2023-04-04T12:29:19.170Z,6.42
2023-04-04T12:31:48.324Z,6.43
2023-04-04T12:34:18.091Z,6.44
2023-04-04T12:36:49.751Z,6.44
2023-04-04T12:39:17.708Z,6.43
2023-04-04T12:41:55.738Z,6.44
2023-04-04T12:44:33.819Z,6.43
2023-04-04T12:47:05.187Z,6.43
2023-04-04T12:49:43.579Z,6.43
2023-04-04T12:52:21.180Z,6.43
2023-04-04T12:55:04.824Z,6.45
2023-04-04T12:57:37.062Z,6.47
2023-04-04T13:00:08.327Z,6.49
2023-04-04T13:02:39.193Z,6.51
2023-04-04T13:05:11.852Z,6.53
2023-04-04T13:07:44.121Z,6.54
2023-04-04T13:10:15.361Z,6.54
2023-04-04T13:13:02.768Z,6.54
2023-04-04T13:15:49.375Z,6.56
2023-04-04T13:18:21.819Z,6.55
2023-04-04T13:20:51.486Z,6.55
2023-04-04T13:23:19.705Z,6.56
2023-04-04T13:25:47.831Z,6.56
2023-04-04T13:28:16.215Z,6.57
2023-04-04T13:30:49.782Z,6.58
2023-04-04T13:33:18.907Z,6.59
2023-04-04T13:35:47.076Z,6.59
2023-04-04T13:38:15.348Z,6.59
2023-04-04T13:40:43.213Z,6.59
2023-04-04T13:43:13.273Z,6.59
2023-04-04T13:45:44.965Z,6.59
2023-04-04T13:48:14.590Z,6.58
2023-04-04T13:50:48.880Z,6.58
2023-04-04T13:53:19.606Z,6.58
2023-04-04T13:56:13.054Z,6.58
2023-04-04T13:58:35.346Z,6.59
2023-04-04T14:01:07.633Z,6.58
2023-04-04T14:03:37.552Z,6.57
2023-04-04T14:06:10.360Z,6.56
2023-04-04T14:08:40.392Z,6.57
2023-04-04T14:11:08.355Z,6.57
2023-04-04T14:13:37.438Z,6.56
2023-04-04T14:16:08.385Z,6.55
2023-04-04T14:18:37.040Z,6.54
2023-04-04T14:21:05.578Z,6.54
2023-04-04T14:23:33.555Z,6.53
2023-04-04T14:26:01.631Z,6.51
2023-04-04T14:28:29.609Z,6.48
2023-04-04T14:30:57.457Z,6.46
2023-04-04T14:33:26.316Z,6.44
2023-04-04T14:35:54.771Z,6.42
2023-04-04T14:38:22.732Z,6.40
2023-04-04T14:40:51.316Z,6.38
2023-04-04T14:43:19.695Z,6.35
2023-04-04T14:45:47.798Z,6.32
2023-04-04T14:48:15.615Z,6.30
2023-04-04T14:50:43.530Z,6.27
2023-04-04T14:53:11.395Z,6.24
2023-04-04T14:55:39.457Z,6.22
2023-04-04T14:58:09.182Z,6.21
2023-04-04T15:00:37.389Z,6.19
2023-04-04T15:03:07.315Z,6.16
2023-04-04T15:05:37.012Z,6.15
2023-04-04T15:08:05.085Z,6.13
2023-04-04T15:10:32.900Z,6.12
2023-04-04T15:13:01.016Z,6.12
2023-04-04T15:15:29.358Z,6.11
2023-04-04T15:17:57.314Z,6.10
2023-04-04T15:20:25.659Z,6.09
2023-04-04T15:22:53.733Z,6.08
2023-04-04T15:25:21.549Z,6.08
2023-04-04T15:27:49.654Z,6.07
2023-04-04T15:30:17.432Z,6.05
2023-04-04T15:32:46.179Z,6.05
2023-04-04T15:35:19.243Z,6.04
2023-04-04T15:37:49.344Z,6.03
2023-04-04T15:40:18.770Z,6.02
2023-04-04T15:42:47.753Z,6.02
2023-04-04T15:45:16.234Z,6.00
2023-04-04T15:47:45.651Z,5.99
2023-04-04T15:50:13.901Z,5.98
2023-04-04T15:52:42.307Z,5.96
2023-04-04T15:55:12.217Z,5.97
2023-04-04T15:57:40.729Z,5.97
2023-04-04T16:00:11.467Z,5.96
2023-04-04T16:02:39.594Z,5.95
2023-04-04T16:05:09.825Z,5.95
2023-04-04T16:07:38.041Z,5.94
2023-04-04T16:10:07.440Z,5.94
2023-04-04T16:12:35.843Z,5.93
2023-04-04T16:15:05.526Z,5.93
2023-04-04T16:17:33.553Z,5.89
2023-04-04T16:20:02.056Z,5.74
2023-04-04T16:22:30.893Z,5.59
2023-04-04T16:24:58.884Z,5.50
2023-04-04T16:27:27.563Z,5.46
2023-04-04T16:29:55.743Z,5.44
2023-04-04T16:32:23.716Z,5.43
2023-04-04T16:34:53.238Z,5.43
2023-04-04T16:37:23.430Z,5.43
2023-04-04T16:39:52.354Z,5.42
2023-04-04T16:42:20.221Z,5.42
2023-04-04T16:44:48.321Z,5.42
2023-04-04T16:47:16.389Z,5.42
2023-04-04T16:49:44.952Z,5.42
2023-04-04T16:52:15.086Z,5.41
2023-04-04T16:54:43.158Z,5.41
2023-04-04T16:57:11.432Z,5.41
2023-04-04T16:59:39.439Z,5.41
2023-04-04T17:02:11.172Z,5.41
2023-04-04T17:04:41.556Z,5.41
2023-04-04T17:07:10.800Z,5.41
2023-04-04T17:09:38.792Z,5.41
2023-04-04T17:12:07.288Z,5.41
2023-04-04T17:14:35.784Z,5.41
2023-04-04T17:17:05.531Z,5.42
2023-04-04T17:19:35.349Z,5.42
2023-04-04T17:22:03.483Z,5.41
2023-04-04T17:24:31.629Z,5.41
2023-04-04T17:27:01.991Z,5.41
2023-04-04T17:29:30.344Z,5.40
2023-04-04T17:31:58.623Z,5.40
2023-04-04T17:34:27.881Z,5.40
2023-04-04T17:36:56.303Z,5.40
2023-04-04T17:39:25.722Z,5.40
2023-04-04T17:41:54.010Z,5.40
2023-04-04T17:44:22.463Z,5.40
2023-04-04T17:46:50.880Z,5.40
2023-04-04T17:49:20.626Z,5.40
2023-04-04T17:51:49.421Z,5.40
2023-04-04T17:54:17.571Z,5.39
2023-04-04T17:56:47.230Z,5.39
2023-04-04T17:59:16.706Z,5.39
2023-04-04T18:01:45.105Z,5.39
2023-04-04T18:04:15.385Z,5.39
2023-04-04T18:06:43.365Z,5.39
2023-04-04T18:09:11.336Z,5.38
2023-04-04T18:11:39.723Z,5.38
2023-04-04T18:14:08.815Z,5.37
2023-04-04T18:16:41.008Z,5.38
2023-04-04T18:19:10.148Z,5.37
2023-04-04T18:21:41.140Z,5.38
2023-04-04T18:24:11.417Z,5.37
2023-04-04T18:26:39.766Z,5.37
2023-04-04T18:29:09.465Z,5.38
2023-04-04T18:31:37.357Z,5.38
2023-04-04T18:34:05.308Z,5.37
2023-04-04T18:36:33.344Z,5.38
2023-04-04T18:39:01.459Z,5.38
2023-04-04T18:41:29.458Z,5.38
2023-04-04T18:43:57.317Z,5.37
2023-04-04T18:46:25.274Z,5.36
2023-04-04T18:48:53.243Z,5.31
2023-04-04T18:51:23.497Z,5.28
2023-04-04T18:53:52.161Z,5.27
2023-04-04T18:56:21.652Z,5.28
2023-04-04T18:58:49.717Z,5.28
2023-04-04T19:01:18.140Z,5.28
2023-04-04T19:03:48.203Z,5.30
2023-04-04T19:06:17.251Z,5.31
2023-04-04T19:08:45.116Z,5.32
2023-04-04T19:11:16.507Z,5.34
2023-04-04T19:13:44.426Z,5.35
2023-04-04T19:16:12.763Z,5.35
2023-04-04T19:18:40.812Z,5.35
2023-04-04T19:21:10.220Z,5.36
2023-04-04T19:23:39.328Z,5.37
2023-04-04T19:26:07.726Z,5.37
2023-04-04T19:28:36.498Z,5.38
2023-04-04T19:31:08.463Z,5.37
2023-04-04T19:33:37.458Z,5.38
2023-04-04T19:36:09.933Z,5.39
2023-04-04T19:38:39.627Z,5.39
2023-04-04T19:41:28.288Z,5.40
2023-04-04T19:43:56.565Z,5.40
2023-04-04T19:46:26.573Z,5.41
2023-04-04T19:48:56.313Z,5.41
2023-04-04T19:51:24.288Z,5.41
2023-04-04T19:53:56.436Z,5.40
2023-04-04T19:56:26.274Z,5.40
2023-04-04T19:58:55.473Z,5.42
2023-04-04T20:01:30.851Z,5.43
2023-04-04T20:04:09.608Z,5.44
2023-04-04T20:06:39.028Z,5.46
2023-04-04T20:09:31.781Z,5.47
2023-04-04T20:11:59.888Z,5.48
2023-04-04T20:14:28.748Z,5.49
2023-04-04T20:16:56.830Z,5.50
2023-04-04T20:19:26.134Z,5.51
2023-04-04T20:21:53.977Z,5.51
2023-04-04T20:24:22.138Z,5.52
2023-04-04T20:26:55.164Z,5.53
2023-04-04T20:29:34.745Z,5.52
2023-04-04T20:32:04.405Z,5.53
2023-04-04T20:34:39.351Z,5.54
2023-04-04T20:37:09.574Z,5.55
2023-04-04T20:39:41.360Z,5.56
2023-04-04T20:42:29.380Z,5.56
2023-04-04T20:45:00.934Z,5.57
2023-04-04T20:47:41.429Z,5.57
2023-04-04T20:50:20.833Z,5.58
2023-04-04T20:53:05.275Z,5.58
2023-04-04T20:55:34.260Z,5.58
2023-04-04T20:58:20.360Z,5.58
2023-04-04T21:00:48.562Z,5.58
2023-04-04T21:03:26.331Z,5.58
2023-04-04T21:05:56.657Z,5.58
2023-04-04T21:08:24.633Z,5.57
2023-04-04T21:10:56.180Z,5.57
2023-04-04T21:13:28.268Z,5.56
2023-04-04T21:16:01.211Z,5.55
2023-04-04T21:18:31.070Z,5.54
2023-04-04T21:21:13.264Z,5.53
2023-04-04T21:23:44.404Z,5.53
2023-04-04T21:26:29.078Z,5.53
2023-04-04T21:28:57.985Z,5.53
2023-04-04T21:31:28.737Z,5.53
2023-04-04T21:33:58.385Z,5.53
2023-04-04T21:36:29.343Z,5.53
2023-04-04T21:38:58.525Z,5.53
2023-04-04T21:41:30.716Z,5.53
2023-04-04T21:44:00.628Z,5.52
2023-04-04T21:46:29.678Z,5.52
2023-04-04T21:48:57.603Z,5.52
2023-04-04T21:51:26.402Z,5.52
2023-04-04T21:53:54.989Z,5.52
2023-04-04T21:56:27.568Z,5.53
2023-04-04T21:58:56.104Z,5.52
2023-04-04T22:01:24.771Z,5.52
2023-04-04T22:03:53.231Z,5.52
2023-04-04T22:06:25.707Z,5.52
2023-04-04T22:08:54.495Z,5.52
2023-04-04T22:11:26.188Z,5.51
2023-04-04T22:14:03.855Z,5.51
2023-04-04T22:16:37.244Z,5.50
2023-04-04T22:19:07.845Z,5.50
2023-04-04T22:21:37.394Z,5.50
2023-04-04T22:24:06.085Z,5.50
2023-04-04T22:26:34.586Z,5.49
2023-04-04T22:29:03.696Z,5.49
2023-04-04T22:31:34.556Z,5.49
2023-04-04T22:34:06.688Z,5.48
2023-04-04T22:36:35.874Z,5.48
2023-04-04T22:39:03.865Z,5.47
2023-04-04T22:41:31.931Z,5.46
2023-04-04T22:44:00.004Z,5.47
2023-04-04T22:46:29.439Z,5.46
2023-04-04T22:49:09.016Z,5.45
2023-04-04T22:51:46.193Z,5.44
2023-04-04T22:54:15.162Z,5.43
2023-04-04T22:56:43.592Z,5.41
2023-04-04T22:59:11.920Z,5.40
2023-04-04T23:01:40.247Z,5.39
2023-04-04T23:04:08.591Z,5.38
2023-04-04T23:06:38.454Z,5.37
2023-04-04T23:09:08.229Z,5.36
2023-04-04T23:11:39.338Z,5.34
2023-04-04T23:14:15.202Z,5.34
2023-04-04T23:16:43.999Z,5.32
2023-04-04T23:19:12.666Z,5.32
2023-04-04T23:21:40.691Z,5.31
2023-04-04T23:24:09.132Z,5.29
2023-04-04T23:26:36.988Z,5.29
2023-04-04T23:29:06.064Z,5.28
2023-04-04T23:31:34.131Z,5.27
2023-04-04T23:34:02.263Z,5.27
2023-04-04T23:36:31.171Z,5.27
2023-04-04T23:38:59.539Z,5.27
2023-04-04T23:41:27.508Z,5.26
2023-04-04T23:43:55.588Z,5.25
2023-04-04T23:46:24.238Z,5.24
2023-04-04T23:48:52.572Z,5.25
2023-04-04T23:51:21.661Z,5.25
2023-04-04T23:53:49.735Z,5.25
2023-04-04T23:56:18.131Z,5.25
2023-04-04T23:58:46.362Z,5.25
